createdAt,value
2023-04-09T00:01:11.865Z,16.38
2023-04-09T00:03:13.405Z,19.40
2023-04-09T00:05:15.297Z,26.00
2023-04-09T00:07:16.836Z,23.20
2023-04-09T00:09:18.357Z,19.00
2023-04-09T00:11:19.908Z,18.27
2023-04-09T00:13:31.890Z,15.52
2023-04-09T00:15:39.886Z,17.92
2023-04-09T00:17:41.454Z,18.30
2023-04-09T00:19:42.980Z,17.55
2023-04-09T00:21:44.727Z,17.50
2023-04-09T00:23:46.215Z,16.75
2023-04-09T00:25:47.706Z,14.63
2023-04-09T00:27:49.620Z,21.52
2023-04-09T00:29:53.960Z,23.23
2023-04-09T00:31:58.641Z,12.75
2023-04-09T00:34:00.449Z,16.77
2023-04-09T00:36:02.152Z,15.38
2023-04-09T00:38:03.724Z,18.92
2023-04-09T00:40:06.453Z,15.60
2023-04-09T00:42:08.191Z,17.25
2023-04-09T00:44:09.866Z,20.85
2023-04-09T00:46:11.563Z,20.35
2023-04-09T00:48:13.947Z,21.10
2023-04-09T00:50:17.002Z,20.58
2023-04-09T00:52:18.813Z,21.35
2023-04-09T00:54:20.500Z,18.95
2023-04-09T00:56:23.602Z,20.27
2023-04-09T00:58:25.326Z,16.60
2023-04-09T01:00:27.619Z,17.95
2023-04-09T01:02:30.820Z,18.02
2023-04-09T01:04:32.999Z,19.67
2023-04-09T01:06:55.744Z,20.63
2023-04-09T01:08:57.268Z,17.77
2023-04-09T01:11:20.911Z,20.60
2023-04-09T01:13:34.860Z,17.10
2023-04-09T01:15:44.195Z,18.85
2023-04-09T01:17:52.077Z,19.10
2023-04-09T01:20:12.493Z,19.23
2023-04-09T01:22:32.604Z,19.00
2023-04-09T01:24:47.248Z,20.23
2023-04-09T01:27:14.771Z,21.23
2023-04-09T01:29:32.204Z,21.05
2023-04-09T01:31:38.863Z,21.73
2023-04-09T01:33:44.620Z,18.77
2023-04-09T01:35:48.399Z,19.80
2023-04-09T01:37:52.211Z,19.08
2023-04-09T01:39:53.836Z,17.02
2023-04-09T01:41:58.702Z,20.23
2023-04-09T01:44:03.151Z,19.42
2023-04-09T01:46:04.889Z,19.05
2023-04-09T01:48:06.885Z,19.85
2023-04-09T01:50:08.980Z,19.25
2023-04-09T01:52:10.792Z,18.08
2023-04-09T01:54:12.728Z,19.35
2023-04-09T01:56:14.397Z,15.73
2023-04-09T01:58:15.946Z,18.60
2023-04-09T02:00:17.703Z,17.90
2023-04-09T02:02:33.499Z,18.83
2023-04-09T02:04:46.671Z,20.98
2023-04-09T02:07:08.053Z,18.55
2023-04-09T02:09:11.899Z,17.80
2023-04-09T02:11:14.913Z,21.55
2023-04-09T02:13:18.856Z,17.83
2023-04-09T02:15:21.618Z,18.30
2023-04-09T02:17:23.337Z,18.63
2023-04-09T02:19:25.160Z,18.70
2023-04-09T02:21:28.483Z,16.90
2023-04-09T02:23:32.292Z,18.52
2023-04-09T02:25:33.894Z,16.52
2023-04-09T02:27:35.744Z,15.82
2023-04-09T02:29:38.154Z,15.82
2023-04-09T02:31:39.668Z,17.08
2023-04-09T02:33:41.378Z,16.70
2023-04-09T02:35:42.902Z,14.38
2023-04-09T02:37:44.367Z,17.30
2023-04-09T02:39:45.884Z,15.75
2023-04-09T02:41:47.465Z,13.43
2023-04-09T02:43:48.980Z,15.88
2023-04-09T02:45:50.530Z,15.90
2023-04-09T02:47:52.039Z,14.88
2023-04-09T02:49:53.584Z,15.93
2023-04-09T02:51:55.248Z,17.88
2023-04-09T02:53:56.832Z,13.32
2023-04-09T02:55:58.477Z,14.77
2023-04-09T02:58:00.160Z,14.70
2023-04-09T03:00:01.668Z,17.13
2023-04-09T03:02:03.293Z,17.13
2023-04-09T03:04:05.100Z,17.80
2023-04-09T03:06:06.729Z,17.17
2023-04-09T03:08:08.414Z,18.05
2023-04-09T03:10:10.273Z,20.58
2023-04-09T03:12:11.743Z,17.15
2023-04-09T03:14:13.221Z,18.23
2023-04-09T03:16:15.315Z,16.92
2023-04-09T03:18:16.862Z,21.30
2023-04-09T03:20:18.457Z,19.85
2023-04-09T03:22:19.983Z,18.50
2023-04-09T03:24:21.649Z,17.85
2023-04-09T03:26:23.798Z,14.40
2023-04-09T03:28:25.329Z,15.20
2023-04-09T03:30:29.275Z,15.73
2023-04-09T03:32:32.117Z,19.70
2023-04-09T03:34:33.598Z,16.90
2023-04-09T03:36:35.324Z,16.98
2023-04-09T03:38:38.434Z,16.48
2023-04-09T03:40:45.932Z,16.02
2023-04-09T03:42:47.441Z,15.80
2023-04-09T03:44:54.269Z,14.30
2023-04-09T03:47:10.570Z,18.08
2023-04-09T03:49:13.403Z,16.42
2023-04-09T03:51:18.714Z,14.35
2023-04-09T03:53:26.286Z,16.30
2023-04-09T03:55:34.736Z,17.45
2023-04-09T03:57:40.031Z,15.60
2023-04-09T03:59:45.744Z,14.90
2023-04-09T04:01:50.747Z,13.10
2023-04-09T04:03:52.397Z,15.43
2023-04-09T04:06:04.005Z,15.90
2023-04-09T04:08:16.442Z,17.17
2023-04-09T04:10:18.218Z,17.90
2023-04-09T04:12:21.710Z,18.48
2023-04-09T04:14:35.426Z,15.15
2023-04-09T04:16:44.625Z,19.38
2023-04-09T04:18:50.080Z,16.85
2023-04-09T04:20:52.181Z,18.83
2023-04-09T04:22:53.732Z,16.67
2023-04-09T04:24:56.944Z,14.85
2023-04-09T04:29:06.432Z,18.02
2023-04-09T04:31:22.028Z,20.42
2023-04-09T04:33:24.706Z,20.05
2023-04-09T04:35:29.073Z,18.15
2023-04-09T04:37:33.999Z,16.27
2023-04-09T04:39:35.907Z,16.80
2023-04-09T04:41:42.375Z,14.68
2023-04-09T04:46:00.166Z,13.85
2023-04-09T04:48:04.353Z,15.02
2023-04-09T04:50:06.988Z,13.48
2023-04-09T04:52:17.980Z,16.55
2023-04-09T04:54:23.557Z,17.27
2023-04-09T04:56:28.975Z,16.17
2023-04-09T04:58:37.059Z,18.67
2023-04-09T05:00:38.776Z,13.82
2023-04-09T05:02:40.400Z,15.57
2023-04-09T05:04:57.620Z,16.05
2023-04-09T05:07:06.730Z,16.67
2023-04-09T05:09:11.391Z,16.00
2023-04-09T05:11:21.157Z,16.05
2023-04-09T05:13:24.063Z,18.63
2023-04-09T05:15:26.988Z,15.98
2023-04-09T05:17:28.881Z,16.52
2023-04-09T05:19:30.854Z,16.55
2023-04-09T05:21:36.023Z,18.30
2023-04-09T05:23:38.017Z,18.08
2023-04-09T05:25:39.700Z,17.63
2023-04-09T05:27:45.243Z,18.65
2023-04-09T05:29:46.924Z,19.52
2023-04-09T05:31:48.565Z,21.20
2023-04-09T05:34:04.476Z,16.58
2023-04-09T05:36:17.261Z,16.67
2023-04-09T05:38:18.764Z,19.17
2023-04-09T05:40:27.668Z,18.73
2023-04-09T05:42:29.640Z,17.58
2023-04-09T05:44:37.798Z,20.50
2023-04-09T05:46:43.976Z,18.33
2023-04-09T05:48:47.828Z,15.73
2023-04-09T05:50:55.614Z,17.40
2023-04-09T05:53:00.489Z,15.45
2023-04-09T05:55:09.968Z,17.48
2023-04-09T05:57:18.176Z,15.75
2023-04-09T05:59:27.229Z,17.00
2023-04-09T06:01:29.583Z,15.95
2023-04-09T06:03:31.163Z,19.17
2023-04-09T06:05:33.126Z,20.20
2023-04-09T06:07:34.668Z,15.75
2023-04-09T06:09:36.572Z,16.65
2023-04-09T06:11:38.411Z,18.00
2023-04-09T06:13:40.416Z,17.40
2023-04-09T06:15:42.296Z,17.00
2023-04-09T06:17:43.898Z,18.02
2023-04-09T06:19:45.414Z,16.52
2023-04-09T06:21:47.041Z,15.05
2023-04-09T06:23:48.787Z,16.00
2023-04-09T06:25:50.312Z,17.10
2023-04-09T06:27:52.057Z,15.95
2023-04-09T06:29:53.656Z,18.77
2023-04-09T06:31:55.178Z,16.15
2023-04-09T06:33:56.814Z,15.52
2023-04-09T06:35:58.946Z,16.58
2023-04-09T06:38:00.477Z,17.27
2023-04-09T06:40:02.279Z,15.52
2023-04-09T06:42:03.939Z,15.70
2023-04-09T06:44:15.676Z,19.80
2023-04-09T06:46:19.920Z,19.05
2023-04-09T06:48:21.585Z,16.83
2023-04-09T06:50:23.101Z,17.58
2023-04-09T06:52:24.720Z,17.67
2023-04-09T06:54:26.260Z,15.35
2023-04-09T06:56:27.738Z,14.68
2023-04-09T06:58:29.347Z,14.50
2023-04-09T07:00:30.970Z,15.43
2023-04-09T07:02:32.861Z,13.95
2023-04-09T07:04:34.870Z,13.18
2023-04-09T07:06:36.560Z,12.30
2023-04-09T07:08:38.468Z,14.40
2023-04-09T07:10:40.241Z,11.57
2023-04-09T07:12:41.891Z,12.93
2023-04-09T07:14:43.405Z,12.52
2023-04-09T07:16:46.433Z,12.88
2023-04-09T07:18:48.042Z,15.13
2023-04-09T07:20:49.714Z,15.65
2023-04-09T07:22:51.299Z,14.73
2023-04-09T07:24:56.373Z,12.00
2023-04-09T07:26:57.973Z,13.43
2023-04-09T07:28:59.508Z,14.63
2023-04-09T07:31:02.963Z,14.48
2023-04-09T07:33:04.716Z,15.02
2023-04-09T07:35:07.859Z,14.00
2023-04-09T07:37:09.591Z,14.73
2023-04-09T07:39:11.209Z,12.85
2023-04-09T07:41:12.988Z,14.30
2023-04-09T07:43:14.537Z,13.82
2023-04-09T07:45:17.201Z,13.23
2023-04-09T07:47:18.685Z,13.40
2023-04-09T07:49:21.406Z,13.85
2023-04-09T07:51:22.869Z,12.65
2023-04-09T07:53:24.465Z,13.63
2023-04-09T07:55:26.168Z,12.77
2023-04-09T07:57:28.075Z,12.45
2023-04-09T07:59:30.739Z,14.57
2023-04-09T08:01:32.316Z,10.93
2023-04-09T08:03:36.105Z,12.13
2023-04-09T08:05:38.052Z,13.90
2023-04-09T08:07:39.630Z,11.82
2023-04-09T08:09:41.373Z,12.82
2023-04-09T08:11:45.492Z,12.50
2023-04-09T08:13:46.955Z,11.73
2023-04-09T08:15:48.426Z,10.05
2023-04-09T08:17:50.034Z,10.30
2023-04-09T08:19:51.557Z,10.57
2023-04-09T08:21:53.097Z,9.45
2023-04-09T08:23:59.205Z,11.80
2023-04-09T08:26:00.749Z,10.65
2023-04-09T08:28:02.362Z,10.00
2023-04-09T08:30:04.375Z,11.20
2023-04-09T08:32:06.092Z,12.45
2023-04-09T08:34:07.805Z,13.27
2023-04-09T08:36:11.422Z,10.93
2023-04-09T08:38:12.980Z,12.73
2023-04-09T08:40:14.708Z,9.02
2023-04-09T08:42:16.555Z,10.50
2023-04-09T08:44:18.371Z,10.52
2023-04-09T08:46:20.446Z,10.25
2023-04-09T08:48:22.707Z,10.10
2023-04-09T08:50:24.453Z,9.65
2023-04-09T08:52:33.829Z,8.65
2023-04-09T08:54:35.570Z,11.23
2023-04-09T08:56:37.229Z,9.13
2023-04-09T08:58:42.790Z,7.93
2023-04-09T09:00:44.591Z,8.25
2023-04-09T09:03:03.346Z,6.70
2023-04-09T09:05:05.417Z,7.88
2023-04-09T09:07:07.261Z,6.90
2023-04-09T09:09:11.263Z,8.88
2023-04-09T09:11:26.777Z,10.15
2023-04-09T09:13:28.375Z,9.82
2023-04-09T09:15:30.092Z,9.55
2023-04-09T09:17:31.708Z,10.13
2023-04-09T09:19:34.080Z,8.45
2023-04-09T09:23:38.620Z,11.98
2023-04-09T09:25:43.405Z,9.68
2023-04-09T09:27:45.176Z,10.63
2023-04-09T09:29:46.829Z,10.50
2023-04-09T09:31:52.885Z,9.25
2023-04-09T09:33:54.760Z,11.18
2023-04-09T09:35:57.590Z,9.70
2023-04-09T09:38:06.722Z,10.00
2023-04-09T09:40:08.870Z,9.65
2023-04-09T09:42:10.425Z,9.60
2023-04-09T09:44:29.905Z,10.13
2023-04-09T09:46:35.642Z,8.70
2023-04-09T09:48:37.633Z,8.98
2023-04-09T09:50:41.811Z,10.23
2023-04-09T09:52:46.008Z,8.90
2023-04-09T09:54:52.717Z,10.30
2023-04-09T09:56:57.953Z,9.48
2023-04-09T09:59:07.254Z,9.98
2023-04-09T10:01:12.801Z,10.35
2023-04-09T10:03:21.317Z,9.38
2023-04-09T10:05:26.788Z,9.68
2023-04-09T10:07:28.989Z,9.27
2023-04-09T10:09:31.271Z,10.13
2023-04-09T10:11:38.120Z,5.85
2023-04-09T10:13:54.520Z,8.13
2023-04-09T10:15:56.518Z,8.07
2023-04-09T10:17:58.113Z,7.53
2023-04-09T10:20:10.373Z,5.90
2023-04-09T10:22:15.903Z,5.95
2023-04-09T10:24:17.652Z,7.13
2023-04-09T10:26:20.338Z,6.70
2023-04-09T10:28:23.156Z,7.28
2023-04-09T10:30:32.890Z,6.57
2023-04-09T10:32:36.033Z,7.50
2023-04-09T10:34:43.336Z,5.93
2023-04-09T10:36:53.540Z,5.63
2023-04-09T10:38:55.672Z,7.07
2023-04-09T10:40:57.475Z,7.00
2023-04-09T10:43:00.441Z,6.30
2023-04-09T10:45:08.204Z,7.43
2023-04-09T10:47:10.849Z,6.60
2023-04-09T10:49:20.722Z,7.15
2023-04-09T10:51:22.414Z,6.55
2023-04-09T10:53:25.622Z,6.43
2023-04-09T10:55:37.013Z,5.95
2023-04-09T10:57:38.665Z,5.55
2023-04-09T10:59:42.120Z,7.88
2023-04-09T11:01:52.662Z,6.60
2023-04-09T11:04:11.321Z,6.50
2023-04-09T11:06:17.694Z,6.97
2023-04-09T11:08:19.820Z,6.53
2023-04-09T11:10:21.889Z,6.28
2023-04-09T11:12:23.383Z,5.85
2023-04-09T11:14:25.661Z,5.03
2023-04-09T11:18:33.765Z,6.13
2023-04-09T11:20:36.041Z,5.63
2023-04-09T11:24:43.940Z,5.15
2023-04-09T11:26:47.162Z,6.10
2023-04-09T11:28:48.733Z,5.93
2023-04-09T11:30:51.441Z,5.93
2023-04-09T11:32:53.098Z,5.72
2023-04-09T11:34:54.754Z,6.25
2023-04-09T11:36:56.972Z,6.32
2023-04-09T11:41:01.733Z,6.38
2023-04-09T11:43:03.293Z,5.32
2023-04-09T11:45:05.544Z,7.05
2023-04-09T11:47:09.266Z,5.82
2023-04-09T11:49:11.432Z,5.55
2023-04-09T11:51:13.156Z,6.07
2023-04-09T11:53:22.615Z,5.55
2023-04-09T11:55:29.166Z,5.85
2023-04-09T11:57:46.787Z,5.45
2023-04-09T11:59:48.496Z,6.07
2023-04-09T12:01:51.365Z,6.53
2023-04-09T12:03:54.588Z,6.30
2023-04-09T12:05:56.288Z,6.57
2023-04-09T12:08:08.425Z,6.03
2023-04-09T12:10:10.707Z,5.00
2023-04-09T12:14:17.287Z,6.45
2023-04-09T12:16:21.121Z,6.28
2023-04-09T12:18:23.566Z,6.65
2023-04-09T12:20:30.026Z,6.10
2023-04-09T12:22:31.597Z,5.25
2023-04-09T12:24:33.182Z,5.85
2023-04-09T12:26:34.717Z,5.28
2023-04-09T12:28:36.300Z,5.93
2023-04-09T12:30:38.311Z,5.88
2023-04-09T12:32:39.896Z,5.85
2023-04-09T12:34:41.921Z,6.93
2023-04-09T12:36:43.696Z,5.40
2023-04-09T12:38:45.497Z,5.90
2023-04-09T12:40:47.146Z,5.10
2023-04-09T12:42:48.781Z,5.95
2023-04-09T12:44:50.555Z,6.53
2023-04-09T12:46:52.037Z,5.47
2023-04-09T12:48:53.987Z,6.57
2023-04-09T12:50:55.844Z,6.93
2023-04-09T12:52:57.432Z,6.50
2023-04-09T12:54:58.986Z,6.03
2023-04-09T12:57:00.562Z,6.72
2023-04-09T12:59:02.030Z,6.32
2023-04-09T13:01:04.200Z,5.93
2023-04-09T13:03:06.629Z,5.30
2023-04-09T13:05:08.464Z,6.15
2023-04-09T13:07:09.996Z,6.10
2023-04-09T13:09:11.498Z,7.15
2023-04-09T13:11:13.255Z,7.80
2023-04-09T13:13:14.889Z,8.18
2023-04-09T13:15:16.413Z,5.90
2023-04-09T13:17:18.181Z,5.65
2023-04-09T13:19:19.885Z,6.68
2023-04-09T13:21:21.424Z,5.78
2023-04-09T13:23:23.240Z,5.53
2023-04-09T13:25:24.766Z,5.03
2023-04-09T13:27:26.423Z,6.40
2023-04-09T13:29:29.284Z,7.07
2023-04-09T13:31:31.040Z,6.38
2023-04-09T13:33:32.509Z,5.25
2023-04-09T13:35:34.042Z,5.22
2023-04-09T13:37:35.673Z,5.10
2023-04-09T13:39:37.239Z,5.25
2023-04-09T13:41:38.811Z,6.30
2023-04-09T13:43:40.336Z,6.43
2023-04-09T13:45:41.815Z,6.00
2023-04-09T13:47:43.506Z,6.68
2023-04-09T13:49:45.238Z,6.70
2023-04-09T13:51:48.594Z,6.57
2023-04-09T13:53:50.754Z,5.80
2023-04-09T13:55:52.375Z,5.28
2023-04-09T13:57:53.886Z,6.25
2023-04-09T13:59:55.484Z,6.15
2023-04-09T14:01:57.159Z,5.57
2023-04-09T14:03:58.840Z,5.28
2023-04-09T14:06:01.614Z,5.18
2023-04-09T14:08:03.202Z,4.72
2023-04-09T14:10:05.143Z,4.95
2023-04-09T14:12:06.670Z,4.75
2023-04-09T14:14:08.233Z,6.38
2023-04-09T14:16:10.220Z,4.97
2023-04-09T14:18:12.012Z,5.18
2023-04-09T14:20:13.573Z,4.68
2023-04-09T14:22:15.266Z,5.00
2023-04-09T14:24:16.787Z,5.75
2023-04-09T14:26:19.428Z,5.22
2023-04-09T14:28:21.945Z,4.68
2023-04-09T14:30:23.484Z,5.30
2023-04-09T14:32:25.115Z,5.25
2023-04-09T14:34:31.308Z,5.30
2023-04-09T14:36:32.899Z,5.40
2023-04-09T14:38:34.828Z,4.40
2023-04-09T14:40:36.534Z,6.20
2023-04-09T14:42:39.422Z,5.57
2023-04-09T14:44:41.129Z,5.72
2023-04-09T14:46:43.618Z,5.03
2023-04-09T14:48:45.172Z,5.57
2023-04-09T14:50:46.648Z,4.88
2023-04-09T14:52:48.427Z,5.05
2023-04-09T14:54:50.180Z,5.13
2023-04-09T14:56:52.300Z,4.75
2023-04-09T14:58:54.414Z,5.00
2023-04-09T15:00:56.603Z,5.43
2023-04-09T15:02:58.443Z,4.55
2023-04-09T15:05:00.690Z,4.72
2023-04-09T15:07:02.264Z,5.63
2023-04-09T15:09:03.836Z,5.07
2023-04-09T15:11:05.473Z,4.10
2023-04-09T15:13:07.031Z,5.32
2023-04-09T15:15:09.340Z,4.75
2023-04-09T15:17:11.054Z,7.15
2023-04-09T15:19:12.648Z,6.05
2023-04-09T15:21:14.544Z,4.78
2023-04-09T15:23:16.212Z,4.80
2023-04-09T15:25:17.907Z,4.72
2023-04-09T15:27:19.741Z,4.68
2023-04-09T15:29:21.371Z,4.53
2023-04-09T15:31:22.864Z,5.15
2023-04-09T15:33:24.455Z,4.38
2023-04-09T15:35:29.147Z,4.25
2023-04-09T15:37:31.049Z,4.65
2023-04-09T15:39:35.282Z,4.88
2023-04-09T15:41:37.865Z,4.70
2023-04-09T15:43:39.469Z,5.82
2023-04-09T15:45:41.305Z,6.03
2023-04-09T15:47:44.702Z,4.47
2023-04-09T15:49:46.566Z,5.28
2023-04-09T15:51:48.582Z,5.65
2023-04-09T15:53:50.206Z,6.18
2023-04-09T15:55:51.914Z,5.85
2023-04-09T15:57:54.979Z,5.97
2023-04-09T15:59:57.868Z,5.53
2023-04-09T16:01:59.580Z,145.57
2023-04-09T16:04:02.375Z,106.50
2023-04-09T16:06:07.320Z,33.42
2023-04-09T16:08:09.113Z,116.15
2023-04-09T16:10:11.086Z,150.70
2023-04-09T16:12:14.042Z,149.10
2023-04-09T16:14:15.707Z,134.82
2023-04-09T16:16:20.567Z,43.55
2023-04-09T16:18:23.211Z,5.82
2023-04-09T16:20:24.808Z,10.02
2023-04-09T16:22:26.642Z,14.82
2023-04-09T16:24:28.603Z,46.35
2023-04-09T16:26:30.279Z,14.25
2023-04-09T16:28:31.879Z,17.50
2023-04-09T16:30:33.545Z,12.00
2023-04-09T16:32:35.296Z,37.83
2023-04-09T16:34:36.999Z,5.65
2023-04-09T16:36:38.520Z,39.97
2023-04-09T16:38:40.243Z,7.13
2023-04-09T16:40:41.818Z,39.80
2023-04-09T16:42:43.761Z,42.75
2023-04-09T16:44:45.243Z,8.63
2023-04-09T16:46:46.784Z,26.83
2023-04-09T16:48:48.354Z,20.42
2023-04-09T16:50:50.154Z,22.10
2023-04-09T16:52:51.692Z,26.85
2023-04-09T16:54:53.221Z,23.20
2023-04-09T16:56:55.815Z,41.10
2023-04-09T16:58:57.475Z,34.45
2023-04-09T17:00:59.174Z,30.55
2023-04-09T17:03:00.856Z,18.92
2023-04-09T17:05:04.137Z,22.08
2023-04-09T17:07:05.748Z,30.95
2023-04-09T17:09:07.407Z,17.13
2023-04-09T17:11:09.027Z,35.60
2023-04-09T17:13:11.016Z,8.88
2023-04-09T17:15:12.730Z,35.50
2023-04-09T17:17:14.470Z,9.60
2023-04-09T17:19:16.031Z,12.35
2023-04-09T17:21:17.502Z,25.15
2023-04-09T17:23:19.268Z,22.70
2023-04-09T17:25:21.305Z,15.85
2023-04-09T17:27:22.813Z,26.85
2023-04-09T17:29:24.279Z,20.67
2023-04-09T17:31:29.138Z,27.98
2023-04-09T17:33:31.757Z,17.75
2023-04-09T17:35:33.949Z,34.55
2023-04-09T17:37:36.318Z,22.83
2023-04-09T17:39:38.127Z,11.68
2023-04-09T17:41:39.639Z,17.92
2023-04-09T17:43:41.184Z,4.78
2023-04-09T17:45:43.179Z,4.68
2023-04-09T17:47:45.558Z,5.47
2023-04-09T17:49:47.420Z,4.30
2023-04-09T17:51:49.019Z,7.03
2023-04-09T17:53:53.519Z,5.45
2023-04-09T17:55:55.002Z,6.25
2023-04-09T17:57:56.504Z,4.60
2023-04-09T17:59:58.045Z,5.05
2023-04-09T18:02:00.178Z,4.60
2023-04-09T18:04:02.191Z,4.28
2023-04-09T18:06:04.089Z,3.85
2023-04-09T18:08:05.891Z,4.40
2023-04-09T18:10:07.805Z,4.35
2023-04-09T18:12:09.359Z,5.57
2023-04-09T18:14:11.190Z,4.32
2023-04-09T18:16:15.034Z,4.63
2023-04-09T18:18:16.626Z,4.70
2023-04-09T18:20:18.225Z,4.03
2023-04-09T18:22:19.868Z,4.75
2023-04-09T18:24:21.401Z,5.32
2023-04-09T18:26:22.998Z,4.68
2023-04-09T18:28:26.066Z,5.28
2023-04-09T18:30:27.822Z,4.43
2023-04-09T18:32:29.665Z,5.15
2023-04-09T18:34:31.425Z,5.78
2023-04-09T18:36:33.500Z,3.90
2023-04-09T18:38:35.047Z,5.05
2023-04-09T18:40:43.725Z,4.75
2023-04-09T18:42:50.160Z,4.28
2023-04-09T18:44:52.034Z,5.47
2023-04-09T18:46:53.571Z,9.38
2023-04-09T18:48:55.373Z,9.07
2023-04-09T18:50:57.187Z,8.90
2023-04-09T18:52:58.748Z,8.77
2023-04-09T18:55:00.354Z,12.27
2023-04-09T18:57:04.146Z,11.68
2023-04-09T18:59:08.138Z,11.43
2023-04-09T19:01:11.703Z,11.52
2023-04-09T19:03:13.557Z,10.68
2023-04-09T19:05:15.331Z,11.63
2023-04-09T19:07:19.180Z,11.52
2023-04-09T19:09:21.405Z,12.90
2023-04-09T19:11:23.077Z,12.90
2023-04-09T19:13:24.631Z,10.70
2023-04-09T19:15:26.799Z,11.43
2023-04-09T19:17:28.422Z,10.30
2023-04-09T19:19:30.055Z,10.13
2023-04-09T19:21:31.760Z,9.82
2023-04-09T19:23:35.968Z,8.75
2023-04-09T19:25:37.989Z,7.68
2023-04-09T19:27:39.672Z,7.75
2023-04-09T19:29:44.696Z,6.78
2023-04-09T19:31:46.695Z,8.27
2023-04-09T19:33:48.279Z,7.20
2023-04-09T19:35:50.932Z,9.13
2023-04-09T19:37:53.150Z,8.73
2023-04-09T19:39:56.287Z,7.85
2023-04-09T19:41:58.165Z,8.35
2023-04-09T19:44:01.322Z,9.57
2023-04-09T19:46:08.399Z,5.97
2023-04-09T19:48:10.258Z,8.82
2023-04-09T19:50:11.931Z,7.80
2023-04-09T19:52:13.437Z,6.70
2023-04-09T19:54:16.455Z,5.90
2023-04-09T19:56:18.380Z,7.00
2023-04-09T19:58:19.987Z,7.78
2023-04-09T20:00:21.580Z,7.47
2023-04-09T20:02:23.819Z,6.35
2023-04-09T20:04:25.640Z,8.23
2023-04-09T20:06:28.767Z,9.68
2023-04-09T20:08:30.253Z,6.60
2023-04-09T20:10:31.818Z,4.93
2023-04-09T20:12:34.288Z,5.20
2023-04-09T20:14:38.046Z,5.32
2023-04-09T20:16:39.710Z,6.32
2023-04-09T20:18:43.926Z,6.20
2023-04-09T20:20:45.581Z,6.15
2023-04-09T20:22:55.550Z,6.85
2023-04-09T20:24:59.693Z,6.10
2023-04-09T20:27:01.551Z,5.65
2023-04-09T20:29:03.104Z,5.25
2023-04-09T20:31:05.929Z,5.00
2023-04-09T20:33:07.499Z,5.75
2023-04-09T20:35:10.811Z,5.90
2023-04-09T20:37:12.597Z,6.85
2023-04-09T20:39:14.287Z,7.45
2023-04-09T20:41:15.768Z,7.95
2023-04-09T20:43:17.516Z,7.85
2023-04-09T20:45:19.056Z,8.55
2023-04-09T20:47:21.856Z,6.97
2023-04-09T20:51:25.563Z,5.65
2023-04-09T20:53:27.128Z,5.97
2023-04-09T20:55:29.475Z,7.13
2023-04-09T20:57:31.016Z,6.57
2023-04-09T20:59:32.649Z,6.50
2023-04-09T21:01:35.702Z,6.28
2023-04-09T21:03:38.713Z,7.15
2023-04-09T21:05:40.851Z,4.90
2023-04-09T21:07:42.302Z,5.28
2023-04-09T21:09:44.061Z,5.53
2023-04-09T21:11:45.998Z,5.43
2023-04-09T21:13:54.699Z,5.50
2023-04-09T21:15:57.703Z,6.05
2023-04-09T21:17:59.380Z,5.15
2023-04-09T21:20:00.925Z,8.57
2023-04-09T21:22:02.598Z,8.10
2023-04-09T21:24:04.146Z,8.27
2023-04-09T21:26:05.963Z,6.30
2023-04-09T21:28:07.860Z,7.55
2023-04-09T21:30:09.594Z,4.95
2023-04-09T21:32:11.411Z,5.47
2023-04-09T21:34:13.022Z,5.55
2023-04-09T21:36:14.646Z,6.68
2023-04-09T21:38:16.403Z,6.13
2023-04-09T21:40:17.954Z,6.72
2023-04-09T21:42:19.478Z,6.50
2023-04-09T21:44:21.165Z,5.90
2023-04-09T21:46:22.763Z,4.57
2023-04-09T21:48:26.254Z,6.10
2023-04-09T21:50:27.930Z,8.68
2023-04-09T21:52:29.491Z,10.63
2023-04-09T21:54:31.051Z,7.90
2023-04-09T21:56:33.316Z,6.47
2023-04-09T21:58:34.797Z,6.47
2023-04-09T22:00:36.612Z,6.90
2023-04-09T22:02:39.273Z,5.13
2023-04-09T22:04:43.830Z,6.35
2023-04-09T22:06:46.654Z,5.60
2023-04-09T22:10:58.599Z,4.30
2023-04-09T22:13:00.162Z,5.07
2023-04-09T22:15:02.826Z,5.38
2023-04-09T22:17:04.380Z,5.70
2023-04-09T22:19:06.085Z,5.38
2023-04-09T22:21:07.669Z,5.45
2023-04-09T22:23:09.651Z,5.15
2023-04-09T22:25:12.652Z,6.35
2023-04-09T22:27:14.327Z,6.15
2023-04-09T22:29:16.063Z,6.03
2023-04-09T22:31:17.714Z,4.65
2023-04-09T22:33:19.424Z,5.00
2023-04-09T22:35:21.078Z,4.90
2023-04-09T22:37:22.811Z,5.68
2023-04-09T22:39:24.540Z,5.65
2023-04-09T22:41:26.231Z,4.85
2023-04-09T22:43:27.734Z,5.72
2023-04-09T22:45:30.482Z,7.10
2023-04-09T22:47:31.994Z,4.93
2023-04-09T22:49:33.467Z,5.22
2023-04-09T22:51:35.070Z,7.72
2023-04-09T22:53:36.759Z,5.15
2023-04-09T22:55:38.328Z,3.92
2023-04-09T22:57:42.662Z,5.45
2023-04-09T22:59:44.210Z,6.45
2023-04-09T23:01:45.871Z,5.15
2023-04-09T23:03:49.054Z,7.43
2023-04-09T23:05:50.945Z,8.38
2023-04-09T23:07:52.519Z,5.80
2023-04-09T23:09:56.739Z,6.85
2023-04-09T23:11:58.284Z,7.25
2023-04-09T23:13:59.759Z,4.95
2023-04-09T23:16:07.460Z,5.75
2023-04-09T23:18:09.089Z,5.65
2023-04-09T23:20:14.920Z,4.80
2023-04-09T23:22:16.639Z,5.55
2023-04-09T23:24:19.153Z,6.28
2023-04-09T23:26:20.666Z,5.03
2023-04-09T23:28:24.789Z,3.67
2023-04-09T23:30:27.166Z,4.25
2023-04-09T23:32:28.736Z,4.15
2023-04-09T23:34:30.382Z,7.28
2023-04-09T23:36:32.615Z,5.47
2023-04-09T23:38:34.212Z,5.45
2023-04-09T23:40:35.828Z,5.80
2023-04-09T23:42:37.870Z,7.28
2023-04-09T23:44:39.493Z,4.82
2023-04-09T23:46:41.616Z,6.03
2023-04-09T23:48:43.271Z,5.50
2023-04-09T23:50:44.798Z,6.35
2023-04-09T23:52:47.994Z,7.15
2023-04-09T23:54:53.267Z,6.20
2023-04-09T23:56:56.393Z,7.30
2023-04-09T23:58:58.146Z,5.55
